createdAt,value
2023-02-28T00:01:38.465Z,100920.75
2023-02-28T00:04:05.617Z,100914.53
2023-02-28T00:06:33.835Z,100918.72
2023-02-28T00:09:01.189Z,100911.78
2023-02-28T00:11:28.975Z,100916.78
2023-02-28T00:13:56.242Z,100917.56
2023-02-28T00:16:23.980Z,100920.13
2023-02-28T00:18:52.650Z,100911.72
2023-02-28T00:21:21.136Z,100916.88
2023-02-28T00:23:48.777Z,100918.88
2023-02-28T00:26:20.015Z,100915.00
2023-02-28T00:28:49.741Z,100919.84
2023-02-28T00:31:24.459Z,100932.53
2023-02-28T00:33:53.073Z,100920.38
2023-02-28T00:36:33.700Z,100925.47
2023-02-28T00:39:02.152Z,100921.00
2023-02-28T00:41:29.820Z,100923.50
2023-02-28T00:43:57.436Z,100920.03
2023-02-28T00:46:25.076Z,100919.50
2023-02-28T00:48:52.472Z,100929.25
2023-02-28T00:51:20.865Z,100913.63
2023-02-28T00:53:48.417Z,100928.03
2023-02-28T00:56:15.754Z,100926.38
2023-02-28T00:58:43.526Z,100919.50
2023-02-28T01:01:10.781Z,100925.69
2023-02-28T01:03:38.015Z,100928.47
2023-02-28T01:06:05.664Z,100921.56
2023-02-28T01:08:33.213Z,100926.91
2023-02-28T01:11:12.114Z,100927.63
2023-02-28T01:13:41.885Z,100924.47
2023-02-28T01:16:10.508Z,100921.41
2023-02-28T01:18:38.858Z,100921.00
2023-02-28T01:21:07.433Z,100924.44
2023-02-28T01:23:36.145Z,100920.78
2023-02-28T01:26:21.984Z,100922.56
2023-02-28T01:28:50.800Z,100917.41
2023-02-28T01:31:21.647Z,100917.97
2023-02-28T01:33:50.047Z,100920.22
2023-02-28T01:36:26.798Z,100917.28
2023-02-28T01:38:54.296Z,100922.97
2023-02-28T01:41:33.319Z,100922.94
2023-02-28T01:44:26.403Z,100918.84
2023-02-28T01:46:53.720Z,100917.59
2023-02-28T01:49:21.237Z,100915.44
2023-02-28T01:51:55.898Z,100910.97
2023-02-28T01:54:30.831Z,100917.13
2023-02-28T01:57:14.539Z,100906.53
2023-02-28T02:02:58.058Z,100909.44
2023-02-28T02:05:29.796Z,100914.72
2023-02-28T02:08:03.993Z,100908.78
2023-02-28T02:10:56.608Z,100905.16
2023-02-28T02:14:01.709Z,100905.16
2023-02-28T02:16:57.593Z,100912.69
2023-02-28T02:20:28.815Z,100911.13
2023-02-28T02:23:23.145Z,100907.28
2023-02-28T02:25:58.006Z,100909.22
2023-02-28T02:28:51.262Z,100913.41
2023-02-28T02:31:55.239Z,100913.56
2023-02-28T02:34:27.794Z,100911.69
2023-02-28T02:37:07.089Z,100922.75
2023-02-28T02:40:00.098Z,100914.63
2023-02-28T02:42:59.180Z,100917.91
2023-02-28T02:45:37.096Z,100916.84
2023-02-28T02:48:10.499Z,100912.28
2023-02-28T02:50:55.527Z,100910.38
2023-02-28T02:53:28.474Z,100914.47
2023-02-28T02:55:57.397Z,100918.38
2023-02-28T02:58:29.278Z,100908.84
2023-02-28T03:01:01.469Z,100908.16
2023-02-28T03:03:31.182Z,100916.44
2023-02-28T03:06:02.853Z,100914.75
2023-02-28T03:08:37.497Z,100915.09
2023-02-28T03:11:13.617Z,100919.47
2023-02-28T03:14:04.624Z,100916.63
2023-02-28T03:17:02.927Z,100915.22
2023-02-28T03:19:50.183Z,100914.53
2023-02-28T03:22:41.331Z,100917.13
2023-02-28T03:25:46.951Z,100916.00
2023-02-28T03:28:43.809Z,100925.84
2023-02-28T03:31:18.242Z,100920.28
2023-02-28T03:33:59.062Z,100930.16
2023-02-28T03:36:33.835Z,100919.88
2023-02-28T03:39:06.864Z,100926.50
2023-02-28T03:41:43.334Z,100922.22
2023-02-28T03:44:16.985Z,100923.69
2023-02-28T03:46:54.294Z,100930.88
2023-02-28T03:49:30.076Z,100936.03
2023-02-28T03:52:00.694Z,100933.38
2023-02-28T03:54:37.646Z,100935.47
2023-02-28T03:57:20.401Z,100935.53
2023-02-28T04:00:15.679Z,100936.25
2023-02-28T04:02:42.944Z,100935.09
2023-02-28T04:05:10.551Z,100943.06
2023-02-28T04:07:39.122Z,100940.47
2023-02-28T04:10:06.901Z,100938.97
2023-02-28T04:12:34.373Z,100941.50
2023-02-28T04:15:01.804Z,100946.59
2023-02-28T04:17:29.368Z,100944.88
2023-02-28T04:19:58.793Z,100944.09
2023-02-28T04:22:29.322Z,100948.16
2023-02-28T04:24:56.801Z,100941.81
2023-02-28T04:27:24.250Z,100942.50
2023-02-28T04:29:51.667Z,100952.94
2023-02-28T04:32:19.267Z,100949.44
2023-02-28T04:34:46.633Z,100957.88
2023-02-28T04:37:14.489Z,100953.44
2023-02-28T04:39:43.133Z,100948.44
2023-02-28T04:42:10.836Z,100960.88
2023-02-28T04:44:37.986Z,100963.19
2023-02-28T04:47:05.373Z,100959.13
2023-02-28T04:49:33.799Z,100954.84
2023-02-28T04:52:01.390Z,100960.88
2023-02-28T04:54:29.655Z,100958.06
2023-02-28T04:56:58.748Z,100960.38
2023-02-28T04:59:26.316Z,100960.00
2023-02-28T05:01:53.457Z,100963.31
2023-02-28T05:04:21.750Z,100965.78
2023-02-28T05:06:49.173Z,100967.16
2023-02-28T05:09:16.629Z,100974.69
2023-02-28T05:11:46.092Z,100968.78
2023-02-28T05:14:15.543Z,100968.91
2023-02-28T05:16:45.230Z,100971.88
2023-02-28T05:19:13.770Z,100970.19
2023-02-28T05:21:52.412Z,100974.97
2023-02-28T05:24:26.115Z,100974.09
2023-02-28T05:26:54.992Z,100972.72
2023-02-28T05:29:23.387Z,100977.50
2023-02-28T05:31:51.640Z,100976.34
2023-02-28T05:34:18.880Z,100979.16
2023-02-28T05:36:47.399Z,100977.03
2023-02-28T05:39:21.021Z,100983.78
2023-02-28T05:41:50.397Z,100977.88
2023-02-28T05:44:17.873Z,100983.19
2023-02-28T05:46:45.378Z,100990.28
2023-02-28T05:49:12.886Z,100991.56
2023-02-28T05:51:41.335Z,100991.84
2023-02-28T05:54:09.126Z,100989.09
2023-02-28T05:56:40.326Z,100987.69
2023-02-28T05:59:11.689Z,100994.13
2023-02-28T06:01:41.566Z,100999.66
2023-02-28T06:04:19.297Z,100998.72
2023-02-28T06:06:55.893Z,101002.81
2023-02-28T06:09:26.292Z,101007.34
2023-02-28T06:11:53.878Z,101008.47
2023-02-28T06:14:21.928Z,101023.22
2023-02-28T06:16:50.321Z,101016.28
2023-02-28T06:19:17.915Z,101019.19
2023-02-28T06:21:53.611Z,101030.34
2023-02-28T06:24:26.480Z,101028.44
2023-02-28T06:26:53.972Z,101032.41
2023-02-28T06:29:21.476Z,101032.72
2023-02-28T06:31:49.178Z,101032.03
2023-02-28T06:34:17.886Z,101035.19
2023-02-28T06:36:46.376Z,101036.00
2023-02-28T06:39:13.759Z,101037.34
2023-02-28T06:41:54.230Z,101040.84
2023-02-28T06:44:23.027Z,101051.16
2023-02-28T06:46:51.866Z,101040.97
2023-02-28T06:49:20.555Z,101045.63
2023-02-28T06:51:48.963Z,101051.91
2023-02-28T06:54:17.405Z,101047.19
2023-02-28T06:56:44.909Z,101048.63
2023-02-28T06:59:12.373Z,101046.66
2023-02-28T07:01:40.321Z,101050.63
2023-02-28T07:04:08.133Z,101049.03
2023-02-28T07:06:35.400Z,101048.41
2023-02-28T07:09:02.810Z,101045.34
2023-02-28T07:11:31.594Z,101049.56
2023-02-28T07:13:59.414Z,101044.78
2023-02-28T07:16:26.922Z,101051.31
2023-02-28T07:18:55.094Z,101051.94
2023-02-28T07:21:23.422Z,101048.19
2023-02-28T07:23:52.630Z,101047.81
2023-02-28T07:26:21.195Z,101051.03
2023-02-28T07:28:49.968Z,101048.03
2023-02-28T07:31:19.479Z,101044.31
2023-02-28T07:33:47.162Z,101053.97
2023-02-28T07:36:16.798Z,101050.78
2023-02-28T07:38:48.269Z,101041.88
2023-02-28T07:41:19.325Z,101048.44
2023-02-28T07:43:47.038Z,101049.63
2023-02-28T07:46:17.614Z,101050.78
2023-02-28T07:48:46.198Z,101051.81
2023-02-28T07:51:13.747Z,101048.75
2023-02-28T07:53:41.209Z,101052.63
2023-02-28T07:56:14.312Z,101048.75
2023-02-28T07:58:41.605Z,101046.31
2023-02-28T08:01:12.042Z,101052.75
2023-02-28T08:03:40.214Z,101046.19
2023-02-28T08:06:09.923Z,101046.50
2023-02-28T08:08:37.066Z,101044.00
2023-02-28T08:11:06.725Z,101046.09
2023-02-28T08:13:34.169Z,101050.66
2023-02-28T08:16:03.621Z,101041.38
2023-02-28T08:18:31.251Z,101038.19
2023-02-28T08:20:58.779Z,101041.88
2023-02-28T08:23:26.909Z,101045.47
2023-02-28T08:25:58.338Z,101052.63
2023-02-28T08:28:27.291Z,101043.22
2023-02-28T08:30:55.819Z,101040.75
2023-02-28T08:33:24.801Z,101047.22
2023-02-28T08:35:58.242Z,101041.31
2023-02-28T08:38:25.824Z,101049.09
2023-02-28T08:41:00.183Z,101048.53
2023-02-28T08:43:27.894Z,101048.59
2023-02-28T08:46:00.613Z,101054.13
2023-02-28T08:48:29.827Z,101051.72
2023-02-28T08:51:07.553Z,101042.25
2023-02-28T08:53:35.959Z,101043.22
2023-02-28T08:56:17.876Z,101052.16
2023-02-28T08:58:49.063Z,101048.66
2023-02-28T09:01:19.680Z,101041.81
2023-02-28T09:03:48.070Z,101037.59
2023-02-28T09:06:18.022Z,101045.47
2023-02-28T09:08:47.530Z,101038.69
2023-02-28T09:11:17.181Z,101037.94
2023-02-28T09:13:44.678Z,101036.34
2023-02-28T09:16:14.817Z,101050.50
2023-02-28T09:18:44.787Z,101035.09
2023-02-28T09:21:15.490Z,101025.00
2023-02-28T09:23:46.983Z,101034.00
2023-02-28T09:26:20.662Z,101024.53
2023-02-28T09:28:48.262Z,101031.00
2023-02-28T09:31:24.394Z,101030.44
2023-02-28T09:33:53.685Z,101038.88
2023-02-28T09:36:41.801Z,101041.66
2023-02-28T09:39:11.576Z,101033.91
2023-02-28T09:41:48.679Z,101040.00
2023-02-28T09:44:22.334Z,101037.59
2023-02-28T09:46:51.164Z,101031.75
2023-02-28T09:49:26.704Z,101035.75
2023-02-28T09:52:18.421Z,101028.13
2023-02-28T09:54:45.580Z,101024.59
2023-02-28T09:57:20.621Z,101037.03
2023-02-28T10:00:03.981Z,101027.09
2023-02-28T10:03:04.884Z,101024.63
2023-02-28T10:05:39.966Z,101027.88
2023-02-28T10:08:17.934Z,101023.34
2023-02-28T10:11:03.061Z,101020.06
2023-02-28T10:13:53.858Z,101029.28
2023-02-28T10:16:31.589Z,101015.38
2023-02-28T10:19:34.309Z,101019.78
2023-02-28T10:22:23.807Z,101021.41
2023-02-28T10:24:53.796Z,101020.97
2023-02-28T10:27:32.766Z,101020.28
2023-02-28T10:30:03.308Z,101015.81
2023-02-28T10:32:46.674Z,101007.63
2023-02-28T10:35:18.817Z,101008.94
2023-02-28T10:37:50.118Z,101012.38
2023-02-28T10:40:23.302Z,101014.28
2023-02-28T10:43:28.042Z,101009.56
2023-02-28T10:46:07.195Z,101000.88
2023-02-28T10:48:47.265Z,100997.16
2023-02-28T10:51:17.262Z,100998.69
2023-02-28T10:53:59.583Z,100988.22
2023-02-28T10:56:28.947Z,100993.16
2023-02-28T10:59:03.444Z,100999.06
2023-02-28T11:01:46.462Z,100996.53
2023-02-28T11:04:39.195Z,101003.53
2023-02-28T11:07:22.963Z,100990.41
2023-02-28T11:09:56.774Z,100993.09
2023-02-28T11:12:52.154Z,100982.72
2023-02-28T11:15:28.121Z,100984.34
2023-02-28T11:18:14.883Z,100990.19
2023-02-28T11:20:42.452Z,100985.97
2023-02-28T11:23:15.064Z,100986.28
2023-02-28T11:25:52.373Z,100973.88
2023-02-28T11:28:35.302Z,100972.59
2023-02-28T11:31:05.084Z,100971.06
2023-02-28T11:33:42.923Z,100973.34
2023-02-28T11:36:32.173Z,100972.72
2023-02-28T11:39:10.307Z,100969.81
2023-02-28T11:42:22.090Z,100964.84
2023-02-28T11:45:26.676Z,100958.69
2023-02-28T11:48:02.157Z,100957.09
2023-02-28T11:51:03.043Z,100952.38
2023-02-28T11:53:49.202Z,100951.09
2023-02-28T11:56:32.717Z,100956.69
2023-02-28T11:59:03.091Z,100954.19
2023-02-28T12:01:49.105Z,100961.63
2023-02-28T12:04:29.574Z,100950.03
2023-02-28T12:07:13.002Z,100958.03
2023-02-28T12:10:35.904Z,100954.72
2023-02-28T12:13:29.284Z,100947.75
2023-02-28T12:16:19.719Z,100942.63
2023-02-28T12:19:00.355Z,100938.94
2023-02-28T12:21:47.502Z,100931.84
2023-02-28T12:24:31.799Z,100934.94
2023-02-28T12:27:03.660Z,100926.00
2023-02-28T12:29:55.539Z,100923.78
2023-02-28T12:32:35.152Z,100920.50
2023-02-28T12:35:14.748Z,100920.56
2023-02-28T12:37:56.452Z,100925.03
2023-02-28T12:40:28.634Z,100921.59
2023-02-28T12:43:04.933Z,100919.88
2023-02-28T12:45:50.034Z,100913.06
2023-02-28T12:48:27.410Z,100905.50
2023-02-28T12:50:57.614Z,100901.69
2023-02-28T12:53:32.479Z,100900.44
2023-02-28T12:56:29.395Z,100901.97
2023-02-28T12:59:06.382Z,100898.22
2023-02-28T13:01:57.879Z,100895.75
2023-02-28T13:04:56.983Z,100891.31
2023-02-28T13:07:47.809Z,100900.09
2023-02-28T13:10:17.889Z,100895.19
2023-02-28T13:12:56.106Z,100895.66
2023-02-28T13:15:29.341Z,100888.59
2023-02-28T13:17:59.387Z,100891.28
2023-02-28T13:20:31.066Z,100894.91
2023-02-28T13:22:59.261Z,100893.97
2023-02-28T13:25:26.654Z,100884.13
2023-02-28T13:27:58.226Z,100887.47
2023-02-28T13:30:51.812Z,100882.50
2023-02-28T13:33:30.804Z,100892.09
2023-02-28T13:36:19.210Z,100881.66
2023-02-28T13:38:56.807Z,100880.94
2023-02-28T13:41:45.217Z,100883.28
2023-02-28T13:44:15.290Z,100888.53
2023-02-28T13:46:52.004Z,100876.97
2023-02-28T13:49:29.274Z,100882.44
2023-02-28T13:52:21.056Z,100881.03
2023-02-28T13:55:26.643Z,100884.22
2023-02-28T13:58:41.158Z,100880.03
2023-02-28T14:01:17.747Z,100872.97
2023-02-28T14:04:07.025Z,100870.69
2023-02-28T14:06:36.780Z,100875.31
2023-02-28T14:09:13.500Z,100875.94
2023-02-28T14:11:43.588Z,100873.00
2023-02-28T14:14:50.160Z,100865.47
2023-02-28T14:17:18.789Z,100862.72
2023-02-28T14:19:51.094Z,100863.19
2023-02-28T14:22:39.732Z,100867.81
2023-02-28T14:25:19.600Z,100861.66
2023-02-28T14:27:55.226Z,100865.44
2023-02-28T14:30:28.520Z,100856.31
2023-02-28T14:33:27.783Z,100851.56
2023-02-28T14:36:13.960Z,100846.50
2023-02-28T14:38:55.013Z,100843.16
2023-02-28T14:41:25.597Z,100850.84
2023-02-28T14:43:59.657Z,100843.72
2023-02-28T14:46:42.004Z,100843.41
2023-02-28T14:49:19.348Z,100845.13
2023-02-28T14:51:48.797Z,100834.44
2023-02-28T14:54:25.186Z,100846.47
2023-02-28T14:56:52.924Z,100838.47
2023-02-28T14:59:27.947Z,100838.38
2023-02-28T15:02:17.717Z,100833.13
2023-02-28T15:04:57.517Z,100836.88
2023-02-28T15:07:37.951Z,100839.84
2023-02-28T15:10:12.246Z,100831.31
2023-02-28T15:12:41.529Z,100832.22
2023-02-28T15:15:31.924Z,100828.66
2023-02-28T15:18:20.117Z,100830.38
2023-02-28T15:20:48.167Z,100834.72
2023-02-28T15:23:17.173Z,100832.34
2023-02-28T15:25:45.129Z,100826.88
2023-02-28T15:28:19.757Z,100826.91
2023-02-28T15:31:05.048Z,100823.47
2023-02-28T15:33:34.737Z,100832.31
2023-02-28T15:36:06.110Z,100826.66
2023-02-28T15:38:37.361Z,100817.88
2023-02-28T15:41:09.362Z,100819.13
2023-02-28T15:43:39.409Z,100820.91
2023-02-28T15:46:10.594Z,100814.72
2023-02-28T15:48:44.012Z,100824.44
2023-02-28T15:51:23.902Z,100819.47
2023-02-28T15:54:01.482Z,100812.56
2023-02-28T15:56:31.816Z,100818.59
2023-02-28T15:59:06.366Z,100832.97
2023-02-28T16:01:39.154Z,100825.59
2023-02-28T16:04:21.086Z,100835.88
2023-02-28T16:07:05.788Z,100822.69
2023-02-28T16:09:35.261Z,100828.78
2023-02-28T16:12:03.918Z,100836.69
2023-02-28T16:14:32.348Z,100839.00
2023-02-28T16:17:07.170Z,100841.38
2023-02-28T16:19:35.896Z,100838.91
2023-02-28T16:22:02.877Z,100842.59
2023-02-28T16:24:32.326Z,100837.56
2023-02-28T16:27:01.592Z,100845.66
2023-02-28T16:29:31.167Z,100838.75
2023-02-28T16:31:58.622Z,100842.28
2023-02-28T16:34:26.036Z,100856.31
2023-02-28T16:36:54.155Z,100854.69
2023-02-28T16:39:22.277Z,100856.44
2023-02-28T16:41:50.646Z,100862.53
2023-02-28T16:44:30.426Z,100865.13
2023-02-28T16:46:58.176Z,100853.66
2023-02-28T16:49:26.797Z,100862.47
2023-02-28T16:51:54.722Z,100872.88
2023-02-28T16:54:22.628Z,100867.44
2023-02-28T16:56:51.052Z,100876.88
2023-02-28T16:59:24.798Z,100873.31
2023-02-28T17:01:53.667Z,100875.91
2023-02-28T17:04:21.700Z,100884.56
2023-02-28T17:06:49.743Z,100873.00
2023-02-28T17:09:28.280Z,100878.81
2023-02-28T17:12:05.812Z,100875.91
2023-02-28T17:14:33.204Z,100885.06
2023-02-28T17:17:01.196Z,100882.84
2023-02-28T17:19:29.749Z,100884.84
2023-02-28T17:21:58.778Z,100882.94
2023-02-28T17:24:31.110Z,100884.19
2023-02-28T17:27:05.925Z,100882.44
2023-02-28T17:29:34.339Z,100897.63
2023-02-28T17:32:12.242Z,100902.66
2023-02-28T17:34:48.601Z,100893.16
2023-02-28T17:37:17.393Z,100898.81
2023-02-28T17:39:45.164Z,100895.91
2023-02-28T17:42:13.572Z,100891.72
2023-02-28T17:44:43.284Z,100885.44
2023-02-28T17:47:14.576Z,100896.00
2023-02-28T17:49:43.276Z,100898.97
2023-02-28T17:52:11.330Z,100891.63
2023-02-28T17:54:41.840Z,100894.09
2023-02-28T17:57:16.551Z,100893.19
2023-02-28T17:59:44.885Z,100899.81
2023-02-28T18:02:14.542Z,100898.00
2023-02-28T18:04:42.601Z,100897.84
2023-02-28T18:07:12.949Z,100892.31
2023-02-28T18:09:41.112Z,100891.44
2023-02-28T18:12:10.211Z,100887.06
2023-02-28T18:14:39.432Z,100897.22
2023-02-28T18:17:07.855Z,100894.47
2023-02-28T18:19:35.943Z,100900.59
2023-02-28T18:22:04.083Z,100897.75
2023-02-28T18:24:32.211Z,100897.69
2023-02-28T18:27:01.399Z,100895.16
2023-02-28T18:29:39.610Z,100887.03
2023-02-28T18:32:09.226Z,100889.78
2023-02-28T18:34:36.867Z,100891.44
2023-02-28T18:37:05.260Z,100887.13
2023-02-28T18:39:34.233Z,100887.09
2023-02-28T18:42:02.913Z,100886.25
2023-02-28T18:44:30.548Z,100880.31
2023-02-28T18:46:58.430Z,100890.53
2023-02-28T18:49:27.679Z,100892.25
2023-02-28T18:51:56.061Z,100886.94
2023-02-28T18:54:31.871Z,100889.47
2023-02-28T18:57:01.231Z,100897.03
2023-02-28T18:59:29.083Z,100890.88
2023-02-28T19:01:59.354Z,100890.00
2023-02-28T19:04:27.795Z,100890.81
2023-02-28T19:06:55.565Z,100896.56
2023-02-28T19:09:25.021Z,100898.31
2023-02-28T19:11:56.190Z,100891.31
2023-02-28T19:14:24.188Z,100903.44
2023-02-28T19:16:52.569Z,100893.38
2023-02-28T19:19:20.738Z,100896.00
2023-02-28T19:21:49.278Z,100890.19
2023-02-28T19:24:20.409Z,100905.00
2023-02-28T19:26:48.726Z,100905.50
2023-02-28T19:29:19.727Z,100903.75
2023-02-28T19:31:48.698Z,100901.19
2023-02-28T19:34:17.513Z,100912.31
2023-02-28T19:36:45.766Z,100907.59
2023-02-28T19:39:15.524Z,100917.59
2023-02-28T19:41:51.639Z,100912.22
2023-02-28T19:44:19.544Z,100913.94
2023-02-28T19:46:47.427Z,100908.72
2023-02-28T19:49:15.498Z,100912.09
2023-02-28T19:51:45.386Z,100909.19
2023-02-28T19:54:14.485Z,100908.84
2023-02-28T19:56:44.013Z,100905.13
2023-02-28T19:59:21.151Z,100904.84
2023-02-28T20:01:50.574Z,100910.81
2023-02-28T20:04:19.143Z,100896.25
2023-02-28T20:06:49.779Z,100901.56
2023-02-28T20:09:18.284Z,100906.84
2023-02-28T20:11:47.378Z,100905.34
2023-02-28T20:14:15.423Z,100904.22
2023-02-28T20:16:43.352Z,100896.91
2023-02-28T20:19:11.743Z,100902.97
2023-02-28T20:21:42.612Z,100886.19
2023-02-28T20:24:14.872Z,100894.78
2023-02-28T20:26:42.891Z,100895.50
2023-02-28T20:29:11.231Z,100898.53
2023-02-28T20:31:41.785Z,100909.91
2023-02-28T20:34:10.140Z,100892.50
2023-02-28T20:36:38.714Z,100895.84
2023-02-28T20:39:06.995Z,100891.72
2023-02-28T20:41:35.497Z,100898.88
2023-02-28T20:44:04.754Z,100902.72
2023-02-28T20:46:35.300Z,100895.81
2023-02-28T20:49:05.084Z,100893.97
2023-02-28T20:51:33.824Z,100897.53
2023-02-28T20:54:03.037Z,100897.09
2023-02-28T20:56:32.252Z,100896.81
2023-02-28T20:59:01.185Z,100899.88
2023-02-28T21:01:31.196Z,100895.34
2023-02-28T21:04:02.160Z,100894.75
2023-02-28T21:06:37.001Z,100884.88
2023-02-28T21:09:15.863Z,100894.78
2023-02-28T21:11:44.509Z,100895.34
2023-02-28T21:14:17.823Z,100895.78
2023-02-28T21:16:45.447Z,100892.91
2023-02-28T21:19:13.633Z,100902.91
2023-02-28T21:21:51.552Z,100899.81
2023-02-28T21:24:20.459Z,100909.56
2023-02-28T21:26:48.787Z,100902.53
2023-02-28T21:29:17.068Z,100915.66
2023-02-28T21:31:45.636Z,100908.47
2023-02-28T21:34:13.949Z,100915.72
2023-02-28T21:36:47.658Z,100913.41
2023-02-28T21:39:23.674Z,100908.78
2023-02-28T21:41:51.025Z,100912.38
2023-02-28T21:44:19.051Z,100913.13
2023-02-28T21:46:48.287Z,100902.53
2023-02-28T21:49:16.517Z,100905.66
2023-02-28T21:51:44.930Z,100906.72
2023-02-28T21:54:24.996Z,100902.06
2023-02-28T21:56:52.756Z,100907.81
2023-02-28T21:59:20.591Z,100912.84
2023-02-28T22:01:51.187Z,100904.50
2023-02-28T22:04:22.776Z,100920.13
2023-02-28T22:06:57.636Z,100912.69
2023-02-28T22:09:26.243Z,100915.50
2023-02-28T22:11:53.766Z,100914.09
2023-02-28T22:14:22.655Z,100914.19
2023-02-28T22:16:53.782Z,100909.94
2023-02-28T22:19:23.694Z,100915.84
2023-02-28T22:21:51.867Z,100917.28
2023-02-28T22:24:21.031Z,100924.03
2023-02-28T22:26:50.308Z,100928.00
2023-02-28T22:29:17.878Z,100918.91
2023-02-28T22:31:51.369Z,100921.97
2023-02-28T22:34:20.149Z,100924.75
2023-02-28T22:36:47.786Z,100919.31
2023-02-28T22:39:15.304Z,100920.41
2023-02-28T22:41:43.923Z,100928.91
2023-02-28T22:44:11.635Z,100922.50
2023-02-28T22:46:39.341Z,100929.94
2023-02-28T22:49:08.573Z,100931.69
2023-02-28T22:51:38.309Z,100926.09
2023-02-28T22:54:05.672Z,100934.00
2023-02-28T22:56:33.607Z,100927.22
2023-02-28T22:59:03.830Z,100935.44
2023-02-28T23:01:33.030Z,100929.72
2023-02-28T23:04:19.991Z,100937.03
2023-02-28T23:06:47.557Z,100940.31
2023-02-28T23:09:19.027Z,100940.88
2023-02-28T23:11:49.897Z,100941.50
2023-02-28T23:14:19.902Z,100949.22
2023-02-28T23:16:54.507Z,100954.59
2023-02-28T23:19:26.673Z,100947.47
2023-02-28T23:21:54.462Z,100946.34
2023-02-28T23:24:34.026Z,100952.72
2023-02-28T23:27:04.774Z,100951.31
2023-02-28T23:29:33.815Z,100954.13
2023-02-28T23:32:01.610Z,100940.06
2023-02-28T23:34:30.786Z,100947.47
2023-02-28T23:37:07.592Z,100941.94
2023-02-28T23:39:35.143Z,100944.00
2023-02-28T23:42:03.697Z,100938.06
2023-02-28T23:44:32.052Z,100941.59
2023-02-28T23:46:59.533Z,100935.00
2023-02-28T23:49:27.302Z,100931.25
2023-02-28T23:51:54.844Z,100930.25
2023-02-28T23:54:22.667Z,100924.03
2023-02-28T23:56:50.875Z,100928.03
2023-02-28T23:59:24.089Z,100938.59
